sensor_id;sensor_type;location;lat;lon;timestamp;temperature;humidity
14301;DHT22;7234;59.306;18.024;2023-03-01T00:01:27;4.50;99.90
14301;DHT22;7234;59.306;18.024;2023-03-01T00:03:54;4.40;99.90
14301;DHT22;7234;59.306;18.024;2023-03-01T00:06:21;4.40;99.90
14301;DHT22;7234;59.306;18.024;2023-03-01T00:08:49;4.30;99.90
14301;DHT22;7234;59.306;18.024;2023-03-01T00:11:19;4.30;99.90
14301;DHT22;7234;59.306;18.024;2023-03-01T00:13:48;4.30;99.90
14301;DHT22;7234;59.306;18.024;2023-03-01T00:16:18;4.20;99.90
14301;DHT22;7234;59.306;18.024;2023-03-01T00:18:47;4.20;99.90
14301;DHT22;7234;59.306;18.024;2023-03-01T00:21:14;4.20;99.90
14301;DHT22;7234;59.306;18.024;2023-03-01T00:23:41;4.20;99.90
14301;DHT22;7234;59.306;18.024;2023-03-01T00:26:10;4.20;99.90
14301;DHT22;7234;59.306;18.024;2023-03-01T00:28:39;4.10;99.90
14301;DHT22;7234;59.306;18.024;2023-03-01T00:31:09;4.10;99.90
14301;DHT22;7234;59.306;18.024;2023-03-01T00:33:37;4.10;99.90
14301;DHT22;7234;59.306;18.024;2023-03-01T00:36:10;4.00;99.90
14301;DHT22;7234;59.306;18.024;2023-03-01T00:38:38;4.00;99.90
14301;DHT22;7234;59.306;18.024;2023-03-01T00:41:06;4.00;99.90
14301;DHT22;7234;59.306;18.024;2023-03-01T00:43:34;3.90;99.90
14301;DHT22;7234;59.306;18.024;2023-03-01T00:46:02;3.90;99.90
14301;DHT22;7234;59.306;18.024;2023-03-01T00:48:30;3.90;99.90
14301;DHT22;7234;59.306;18.024;2023-03-01T00:50:57;3.90;99.90
14301;DHT22;7234;59.306;18.024;2023-03-01T00:53:28;3.80;99.90
14301;DHT22;7234;59.306;18.024;2023-03-01T00:55:57;3.80;99.90
14301;DHT22;7234;59.306;18.024;2023-03-01T00:58:27;3.70;99.90
14301;DHT22;7234;59.306;18.024;2023-03-01T01:00:54;3.70;99.90
14301;DHT22;7234;59.306;18.024;2023-03-01T01:03:22;3.60;99.90
14301;DHT22;7234;59.306;18.024;2023-03-01T01:05:54;3.60;99.90
14301;DHT22;7234;59.306;18.024;2023-03-01T01:08:21;3.60;99.90
14301;DHT22;7234;59.306;18.024;2023-03-01T01:11:01;3.60;99.90
14301;DHT22;7234;59.306;18.024;2023-03-01T01:13:28;3.50;99.90
14301;DHT22;7234;59.306;18.024;2023-03-01T01:16:01;3.60;99.90
14301;DHT22;7234;59.306;18.024;2023-03-01T01:18:29;3.50;99.90
14301;DHT22;7234;59.306;18.024;2023-03-01T01:20:56;3.50;99.90
14301;DHT22;7234;59.306;18.024;2023-03-01T01:23:24;3.50;99.90
14301;DHT22;7234;59.306;18.024;2023-03-01T01:25:52;3.40;99.90
14301;DHT22;7234;59.306;18.024;2023-03-01T01:28:21;3.40;99.90
14301;DHT22;7234;59.306;18.024;2023-03-01T01:30:48;3.40;99.90
14301;DHT22;7234;59.306;18.024;2023-03-01T01:33:15;3.40;99.90
14301;DHT22;7234;59.306;18.024;2023-03-01T01:35:47;3.30;99.90
14301;DHT22;7234;59.306;18.024;2023-03-01T01:38:14;3.40;99.90
14301;DHT22;7234;59.306;18.024;2023-03-01T01:40:44;3.30;99.90
14301;DHT22;7234;59.306;18.024;2023-03-01T01:43:33;3.30;99.90
14301;DHT22;7234;59.306;18.024;2023-03-01T01:46:04;3.20;99.90
14301;DHT22;7234;59.306;18.024;2023-03-01T01:48:37;3.20;99.90
14301;DHT22;7234;59.306;18.024;2023-03-01T01:51:27;3.20;99.90
14301;DHT22;7234;59.306;18.024;2023-03-01T01:54:18;3.10;99.90
14301;DHT22;7234;59.306;18.024;2023-03-01T01:57:12;3.00;99.90
14301;DHT22;7234;59.306;18.024;2023-03-01T01:59:47;3.10;99.90
14301;DHT22;7234;59.306;18.024;2023-03-01T02:02:24;3.00;99.90
14301;DHT22;7234;59.306;18.024;2023-03-01T02:05:09;3.00;99.90
14301;DHT22;7234;59.306;18.024;2023-03-01T02:07:39;2.90;99.90
14301;DHT22;7234;59.306;18.024;2023-03-01T02:10:07;2.90;99.90
14301;DHT22;7234;59.306;18.024;2023-03-01T02:12:36;2.90;99.90
14301;DHT22;7234;59.306;18.024;2023-03-01T02:15:05;2.80;99.90
14301;DHT22;7234;59.306;18.024;2023-03-01T02:17:33;2.80;99.90
14301;DHT22;7234;59.306;18.024;2023-03-01T02:20:10;2.70;99.90
14301;DHT22;7234;59.306;18.024;2023-03-01T02:22:44;2.70;99.90
14301;DHT22;7234;59.306;18.024;2023-03-01T02:25:25;2.60;99.90
14301;DHT22;7234;59.306;18.024;2023-03-01T02:28:01;2.60;99.90
14301;DHT22;7234;59.306;18.024;2023-03-01T02:30:34;2.60;99.90
14301;DHT22;7234;59.306;18.024;2023-03-01T02:33:04;2.50;99.90
14301;DHT22;7234;59.306;18.024;2023-03-01T02:35:32;2.50;99.90
14301;DHT22;7234;59.306;18.024;2023-03-01T02:38:01;2.50;99.90
14301;DHT22;7234;59.306;18.024;2023-03-01T02:40:29;2.40;99.90
14301;DHT22;7234;59.306;18.024;2023-03-01T02:42:58;2.40;99.90
14301;DHT22;7234;59.306;18.024;2023-03-01T02:45:26;2.30;99.90
14301;DHT22;7234;59.306;18.024;2023-03-01T02:47:56;2.40;99.90
14301;DHT22;7234;59.306;18.024;2023-03-01T02:50:49;2.40;99.90
14301;DHT22;7234;59.306;18.024;2023-03-01T02:53:23;2.30;99.90
14301;DHT22;7234;59.306;18.024;2023-03-01T02:55:54;2.20;99.90
14301;DHT22;7234;59.306;18.024;2023-03-01T02:58:21;2.20;99.90
14301;DHT22;7234;59.306;18.024;2023-03-01T03:00:48;2.20;99.90
14301;DHT22;7234;59.306;18.024;2023-03-01T03:03:19;2.20;99.90
14301;DHT22;7234;59.306;18.024;2023-03-01T03:05:47;2.20;99.90
14301;DHT22;7234;59.306;18.024;2023-03-01T03:08:15;2.20;99.90
14301;DHT22;7234;59.306;18.024;2023-03-01T03:10:49;2.20;99.90
14301;DHT22;7234;59.306;18.024;2023-03-01T03:13:16;2.20;99.90
14301;DHT22;7234;59.306;18.024;2023-03-01T03:15:44;2.20;99.90
14301;DHT22;7234;59.306;18.024;2023-03-01T03:18:16;2.20;99.90
14301;DHT22;7234;59.306;18.024;2023-03-01T03:20:44;2.20;99.90
14301;DHT22;7234;59.306;18.024;2023-03-01T03:23:12;2.20;99.90
14301;DHT22;7234;59.306;18.024;2023-03-01T03:25:40;2.20;99.90
14301;DHT22;7234;59.306;18.024;2023-03-01T03:28:07;2.10;99.90
14301;DHT22;7234;59.306;18.024;2023-03-01T03:30:37;2.20;99.90
14301;DHT22;7234;59.306;18.024;2023-03-01T03:33:06;2.10;99.90
14301;DHT22;7234;59.306;18.024;2023-03-01T03:35:39;2.10;99.90
14301;DHT22;7234;59.306;18.024;2023-03-01T03:38:08;2.10;99.90
14301;DHT22;7234;59.306;18.024;2023-03-01T03:40:43;2.00;99.90
14301;DHT22;7234;59.306;18.024;2023-03-01T03:43:12;2.00;99.90
14301;DHT22;7234;59.306;18.024;2023-03-01T03:45:40;1.90;99.90
14301;DHT22;7234;59.306;18.024;2023-03-01T03:48:08;1.90;99.90
14301;DHT22;7234;59.306;18.024;2023-03-01T03:50:38;1.90;99.90
14301;DHT22;7234;59.306;18.024;2023-03-01T03:53:08;1.90;99.90
14301;DHT22;7234;59.306;18.024;2023-03-01T03:55:36;1.90;99.90
14301;DHT22;7234;59.306;18.024;2023-03-01T03:58:06;1.90;99.90
14301;DHT22;7234;59.306;18.024;2023-03-01T04:00:34;1.80;99.90
14301;DHT22;7234;59.306;18.024;2023-03-01T04:03:02;1.80;99.90
14301;DHT22;7234;59.306;18.024;2023-03-01T04:05:30;1.80;99.90
14301;DHT22;7234;59.306;18.024;2023-03-01T04:07:58;1.70;99.90
14301;DHT22;7234;59.306;18.024;2023-03-01T04:10:29;1.60;99.90
14301;DHT22;7234;59.306;18.024;2023-03-01T04:12:56;1.60;99.90
14301;DHT22;7234;59.306;18.024;2023-03-01T04:15:24;1.50;99.90
14301;DHT22;7234;59.306;18.024;2023-03-01T04:17:53;1.50;99.90
14301;DHT22;7234;59.306;18.024;2023-03-01T04:20:22;1.50;99.90
14301;DHT22;7234;59.306;18.024;2023-03-01T04:22:52;1.50;99.90
14301;DHT22;7234;59.306;18.024;2023-03-01T04:25:20;1.50;99.90
14301;DHT22;7234;59.306;18.024;2023-03-01T04:27:48;1.50;99.90
14301;DHT22;7234;59.306;18.024;2023-03-01T04:30:15;1.50;99.90
14301;DHT22;7234;59.306;18.024;2023-03-01T04:32:43;1.40;99.90
14301;DHT22;7234;59.306;18.024;2023-03-01T04:35:10;1.40;99.90
14301;DHT22;7234;59.306;18.024;2023-03-01T04:37:37;1.40;99.90
14301;DHT22;7234;59.306;18.024;2023-03-01T04:40:05;1.40;99.90
14301;DHT22;7234;59.306;18.024;2023-03-01T04:42:43;1.40;99.90
14301;DHT22;7234;59.306;18.024;2023-03-01T04:45:10;1.30;99.90
14301;DHT22;7234;59.306;18.024;2023-03-01T04:47:40;1.40;99.90
14301;DHT22;7234;59.306;18.024;2023-03-01T04:50:09;1.30;99.90
14301;DHT22;7234;59.306;18.024;2023-03-01T04:52:37;1.40;99.90
14301;DHT22;7234;59.306;18.024;2023-03-01T04:55:05;1.40;99.90
14301;DHT22;7234;59.306;18.024;2023-03-01T04:57:33;1.40;99.90
14301;DHT22;7234;59.306;18.024;2023-03-01T05:00:03;1.40;99.90
14301;DHT22;7234;59.306;18.024;2023-03-01T05:02:46;1.40;99.90
14301;DHT22;7234;59.306;18.024;2023-03-01T05:05:14;1.50;99.90
14301;DHT22;7234;59.306;18.024;2023-03-01T05:07:41;1.30;99.90
14301;DHT22;7234;59.306;18.024;2023-03-01T05:10:09;1.30;99.90
14301;DHT22;7234;59.306;18.024;2023-03-01T05:12:36;1.30;99.90
14301;DHT22;7234;59.306;18.024;2023-03-01T05:15:07;1.20;99.90
14301;DHT22;7234;59.306;18.024;2023-03-01T05:17:35;1.20;99.90
14301;DHT22;7234;59.306;18.024;2023-03-01T05:20:02;1.20;99.90
14301;DHT22;7234;59.306;18.024;2023-03-01T05:22:34;1.20;99.90
14301;DHT22;7234;59.306;18.024;2023-03-01T05:25:01;1.20;99.90
14301;DHT22;7234;59.306;18.024;2023-03-01T05:27:30;1.20;99.90
14301;DHT22;7234;59.306;18.024;2023-03-01T05:29:57;1.20;99.90
14301;DHT22;7234;59.306;18.024;2023-03-01T05:32:25;1.10;99.90
14301;DHT22;7234;59.306;18.024;2023-03-01T05:34:52;1.10;99.90
14301;DHT22;7234;59.306;18.024;2023-03-01T05:37:20;1.20;99.90
14301;DHT22;7234;59.306;18.024;2023-03-01T05:39:47;1.10;99.90
14301;DHT22;7234;59.306;18.024;2023-03-01T05:42:19;1.10;99.90
14301;DHT22;7234;59.306;18.024;2023-03-01T05:44:46;1.10;99.90
14301;DHT22;7234;59.306;18.024;2023-03-01T05:47:13;1.00;99.90
14301;DHT22;7234;59.306;18.024;2023-03-01T05:49:41;1.00;99.90
14301;DHT22;7234;59.306;18.024;2023-03-01T05:52:08;1.00;99.90
14301;DHT22;7234;59.306;18.024;2023-03-01T05:54:36;1.00;99.90
14301;DHT22;7234;59.306;18.024;2023-03-01T05:57:03;1.00;99.90
14301;DHT22;7234;59.306;18.024;2023-03-01T05:59:30;1.10;99.90
14301;DHT22;7234;59.306;18.024;2023-03-01T06:01:57;1.00;99.90
14301;DHT22;7234;59.306;18.024;2023-03-01T06:04:24;1.10;99.90
14301;DHT22;7234;59.306;18.024;2023-03-01T06:06:53;1.00;99.90
14301;DHT22;7234;59.306;18.024;2023-03-01T06:09:20;1.10;99.90
14301;DHT22;7234;59.306;18.024;2023-03-01T06:11:47;1.10;99.90
14301;DHT22;7234;59.306;18.024;2023-03-01T06:14:14;1.10;99.90
14301;DHT22;7234;59.306;18.024;2023-03-01T06:17:00;1.20;99.90
14301;DHT22;7234;59.306;18.024;2023-03-01T06:19:28;1.20;99.90
14301;DHT22;7234;59.306;18.024;2023-03-01T06:21:56;1.20;99.90
14301;DHT22;7234;59.306;18.024;2023-03-01T06:24:30;1.20;99.90
14301;DHT22;7234;59.306;18.024;2023-03-01T06:27:01;1.30;99.90
14301;DHT22;7234;59.306;18.024;2023-03-01T06:29:28;1.40;99.90
14301;DHT22;7234;59.306;18.024;2023-03-01T06:31:55;1.70;99.90
14301;DHT22;7234;59.306;18.024;2023-03-01T06:34:22;1.90;99.90
14301;DHT22;7234;59.306;18.024;2023-03-01T06:37:06;1.90;99.90
14301;DHT22;7234;59.306;18.024;2023-03-01T06:39:37;2.60;99.90
14301;DHT22;7234;59.306;18.024;2023-03-01T06:42:04;3.20;99.90
14301;DHT22;7234;59.306;18.024;2023-03-01T06:44:32;3.70;99.90
14301;DHT22;7234;59.306;18.024;2023-03-01T06:47:03;5.00;99.90
14301;DHT22;7234;59.306;18.024;2023-03-01T06:49:37;6.50;99.90
14301;DHT22;7234;59.306;18.024;2023-03-01T06:52:07;7.70;99.90
14301;DHT22;7234;59.306;18.024;2023-03-01T06:54:36;8.00;99.90
14301;DHT22;7234;59.306;18.024;2023-03-01T06:57:20;8.30;99.90
14301;DHT22;7234;59.306;18.024;2023-03-01T06:59:48;9.20;99.90
14301;DHT22;7234;59.306;18.024;2023-03-01T07:02:15;10.50;99.90
14301;DHT22;7234;59.306;18.024;2023-03-01T07:04:49;12.00;99.90
14301;DHT22;7234;59.306;18.024;2023-03-01T07:07:18;13.00;99.90
14301;DHT22;7234;59.306;18.024;2023-03-01T07:10:03;13.90;99.90
14301;DHT22;7234;59.306;18.024;2023-03-01T07:12:43;14.60;99.90
14301;DHT22;7234;59.306;18.024;2023-03-01T07:15:15;15.00;99.90
14301;DHT22;7234;59.306;18.024;2023-03-01T07:17:43;14.80;99.90
14301;DHT22;7234;59.306;18.024;2023-03-01T07:20:13;15.00;99.90
14301;DHT22;7234;59.306;18.024;2023-03-01T07:22:43;15.10;99.90
14301;DHT22;7234;59.306;18.024;2023-03-01T07:25:11;15.80;99.90
14301;DHT22;7234;59.306;18.024;2023-03-01T07:28:10;16.20;99.90
14301;DHT22;7234;59.306;18.024;2023-03-01T07:30:38;16.70;99.90
14301;DHT22;7234;59.306;18.024;2023-03-01T07:33:11;16.90;99.90
14301;DHT22;7234;59.306;18.024;2023-03-01T07:35:58;17.30;99.90
14301;DHT22;7234;59.306;18.024;2023-03-01T07:38:40;17.30;99.90
14301;DHT22;7234;59.306;18.024;2023-03-01T07:41:22;17.30;99.90
14301;DHT22;7234;59.306;18.024;2023-03-01T07:44:04;16.80;99.90
14301;DHT22;7234;59.306;18.024;2023-03-01T07:46:35;16.60;99.90
14301;DHT22;7234;59.306;18.024;2023-03-01T07:49:06;17.10;99.90
14301;DHT22;7234;59.306;18.024;2023-03-01T08:01:30;20.40;99.90
14301;DHT22;7234;59.306;18.024;2023-03-01T08:04:01;20.40;99.90
14301;DHT22;7234;59.306;18.024;2023-03-01T08:06:35;20.50;99.90
14301;DHT22;7234;59.306;18.024;2023-03-01T08:09:04;20.80;98.60
14301;DHT22;7234;59.306;18.024;2023-03-01T08:11:33;20.20;98.10
14301;DHT22;7234;59.306;18.024;2023-03-01T08:14:20;20.10;98.00
14301;DHT22;7234;59.306;18.024;2023-03-01T08:16:49;21.10;97.40
14301;DHT22;7234;59.306;18.024;2023-03-01T08:19:18;20.80;96.80
14301;DHT22;7234;59.306;18.024;2023-03-01T08:21:45;21.00;96.90
14301;DHT22;7234;59.306;18.024;2023-03-01T08:24:14;21.30;96.60
14301;DHT22;7234;59.306;18.024;2023-03-01T08:26:42;21.60;95.90
14301;DHT22;7234;59.306;18.024;2023-03-01T08:29:20;21.90;95.50
14301;DHT22;7234;59.306;18.024;2023-03-01T08:31:48;22.30;94.50
14301;DHT22;7234;59.306;18.024;2023-03-01T08:34:17;22.20;94.10
14301;DHT22;7234;59.306;18.024;2023-03-01T08:36:47;22.50;94.10
14301;DHT22;7234;59.306;18.024;2023-03-01T08:39:18;22.50;93.40
14301;DHT22;7234;59.306;18.024;2023-03-01T08:41:51;22.70;93.10
14301;DHT22;7234;59.306;18.024;2023-03-01T08:44:19;22.90;92.40
14301;DHT22;7234;59.306;18.024;2023-03-01T08:46:47;22.10;92.60
14301;DHT22;7234;59.306;18.024;2023-03-01T08:49:24;22.30;92.40
14301;DHT22;7234;59.306;18.024;2023-03-01T08:52:06;22.70;92.10
14301;DHT22;7234;59.306;18.024;2023-03-01T08:54:35;23.10;92.00
14301;DHT22;7234;59.306;18.024;2023-03-01T08:57:02;23.30;91.40
14301;DHT22;7234;59.306;18.024;2023-03-01T08:59:30;23.50;91.30
14301;DHT22;7234;59.306;18.024;2023-03-01T09:02:04;23.10;90.80
14301;DHT22;7234;59.306;18.024;2023-03-01T09:04:32;22.90;90.50
14301;DHT22;7234;59.306;18.024;2023-03-01T09:07:00;23.00;90.20
14301;DHT22;7234;59.306;18.024;2023-03-01T09:09:27;22.90;90.40
14301;DHT22;7234;59.306;18.024;2023-03-01T09:11:55;23.70;90.10
14301;DHT22;7234;59.306;18.024;2023-03-01T09:14:22;24.20;89.60
14301;DHT22;7234;59.306;18.024;2023-03-01T09:16:50;24.20;88.30
14301;DHT22;7234;59.306;18.024;2023-03-01T09:19:21;23.80;88.10
14301;DHT22;7234;59.306;18.024;2023-03-01T09:21:48;22.90;88.10
14301;DHT22;7234;59.306;18.024;2023-03-01T09:24:20;22.40;88.30
14301;DHT22;7234;59.306;18.024;2023-03-01T09:27:02;22.00;88.00
14301;DHT22;7234;59.306;18.024;2023-03-01T09:29:35;22.50;87.70
14301;DHT22;7234;59.306;18.024;2023-03-01T09:32:02;23.30;87.40
14301;DHT22;7234;59.306;18.024;2023-03-01T09:34:29;23.40;86.70
14301;DHT22;7234;59.306;18.024;2023-03-01T09:37:17;22.60;86.40
14301;DHT22;7234;59.306;18.024;2023-03-01T09:39:47;22.30;86.80
14301;DHT22;7234;59.306;18.024;2023-03-01T09:42:15;22.50;87.10
14301;DHT22;7234;59.306;18.024;2023-03-01T09:44:46;22.00;86.20
14301;DHT22;7234;59.306;18.024;2023-03-01T09:47:19;22.70;87.00
14301;DHT22;7234;59.306;18.024;2023-03-01T09:49:51;22.60;85.90
14301;DHT22;7234;59.306;18.024;2023-03-01T09:52:26;22.90;86.10
14301;DHT22;7234;59.306;18.024;2023-03-01T09:55:07;22.90;85.20
14301;DHT22;7234;59.306;18.024;2023-03-01T09:57:43;22.60;85.40
14301;DHT22;7234;59.306;18.024;2023-03-01T10:00:18;22.30;86.00
14301;DHT22;7234;59.306;18.024;2023-03-01T10:02:57;22.40;85.40
14301;DHT22;7234;59.306;18.024;2023-03-01T10:05:35;22.40;84.90
14301;DHT22;7234;59.306;18.024;2023-03-01T10:08:30;22.40;85.70
14301;DHT22;7234;59.306;18.024;2023-03-01T10:11:02;22.10;85.40
14301;DHT22;7234;59.306;18.024;2023-03-01T10:13:40;22.10;84.60
14301;DHT22;7234;59.306;18.024;2023-03-01T10:16:13;20.70;84.80
14301;DHT22;7234;59.306;18.024;2023-03-01T10:18:47;21.10;86.30
14301;DHT22;7234;59.306;18.024;2023-03-01T10:21:18;20.90;85.90
14301;DHT22;7234;59.306;18.024;2023-03-01T10:23:51;21.50;85.50
14301;DHT22;7234;59.306;18.024;2023-03-01T10:26:38;21.40;85.20
14301;DHT22;7234;59.306;18.024;2023-03-01T10:29:11;20.80;84.90
14301;DHT22;7234;59.306;18.024;2023-03-01T10:31:46;20.60;85.50
14301;DHT22;7234;59.306;18.024;2023-03-01T10:34:18;21.00;85.50
14301;DHT22;7234;59.306;18.024;2023-03-01T10:36:57;21.40;84.80
14301;DHT22;7234;59.306;18.024;2023-03-01T10:42:26;21.90;84.10
14301;DHT22;7234;59.306;18.024;2023-03-01T10:45:23;21.50;84.30
14301;DHT22;7234;59.306;18.024;2023-03-01T10:48:05;21.50;84.50
14301;DHT22;7234;59.306;18.024;2023-03-01T10:50:36;21.70;85.10
14301;DHT22;7234;59.306;18.024;2023-03-01T10:53:20;22.00;84.70
14301;DHT22;7234;59.306;18.024;2023-03-01T10:55:58;21.30;84.70
14301;DHT22;7234;59.306;18.024;2023-03-01T10:58:29;20.90;84.80
14301;DHT22;7234;59.306;18.024;2023-03-01T11:01:03;20.70;85.00
14301;DHT22;7234;59.306;18.024;2023-03-01T11:03:32;20.70;85.10
14301;DHT22;7234;59.306;18.024;2023-03-01T11:06:03;20.90;84.80
14301;DHT22;7234;59.306;18.024;2023-03-01T11:08:34;21.70;84.90
14301;DHT22;7234;59.306;18.024;2023-03-01T11:11:05;21.70;83.80
14301;DHT22;7234;59.306;18.024;2023-03-01T11:13:32;21.80;84.30
14301;DHT22;7234;59.306;18.024;2023-03-01T11:16:06;22.20;84.00
14301;DHT22;7234;59.306;18.024;2023-03-01T11:18:34;22.10;84.00
14301;DHT22;7234;59.306;18.024;2023-03-01T11:21:02;22.30;83.80
14301;DHT22;7234;59.306;18.024;2023-03-01T11:23:30;22.40;83.80
14301;DHT22;7234;59.306;18.024;2023-03-01T11:26:05;22.40;83.50
14301;DHT22;7234;59.306;18.024;2023-03-01T11:28:37;21.90;82.80
14301;DHT22;7234;59.306;18.024;2023-03-01T11:31:10;21.20;83.60
14301;DHT22;7234;59.306;18.024;2023-03-01T11:33:43;20.50;83.80
14301;DHT22;7234;59.306;18.024;2023-03-01T11:36:27;20.60;85.70
14301;DHT22;7234;59.306;18.024;2023-03-01T11:38:56;20.40;83.90
14301;DHT22;7234;59.306;18.024;2023-03-01T11:41:28;20.50;84.10
14301;DHT22;7234;59.306;18.024;2023-03-01T11:43:58;20.50;84.50
14301;DHT22;7234;59.306;18.024;2023-03-01T11:49:44;20.80;84.00
14301;DHT22;7234;59.306;18.024;2023-03-01T11:52:23;20.50;84.50
14301;DHT22;7234;59.306;18.024;2023-03-01T11:55:00;20.80;84.10
14301;DHT22;7234;59.306;18.024;2023-03-01T11:57:43;21.00;84.60
14301;DHT22;7234;59.306;18.024;2023-03-01T12:00:21;20.80;84.10
14301;DHT22;7234;59.306;18.024;2023-03-01T12:03:27;21.00;83.20
14301;DHT22;7234;59.306;18.024;2023-03-01T12:06:28;21.00;84.00
14301;DHT22;7234;59.306;18.024;2023-03-01T12:09:06;21.20;83.90
14301;DHT22;7234;59.306;18.024;2023-03-01T12:11:45;21.50;84.20
14301;DHT22;7234;59.306;18.024;2023-03-01T12:14:55;21.20;83.70
14301;DHT22;7234;59.306;18.024;2023-03-01T12:17:47;20.60;83.70
14301;DHT22;7234;59.306;18.024;2023-03-01T12:20:34;21.00;84.20
14301;DHT22;7234;59.306;18.024;2023-03-01T12:23:45;21.00;83.00
14301;DHT22;7234;59.306;18.024;2023-03-01T12:26:23;21.50;84.10
14301;DHT22;7234;59.306;18.024;2023-03-01T12:29:08;21.40;83.70
14301;DHT22;7234;59.306;18.024;2023-03-01T12:35:03;20.90;82.00
14301;DHT22;7234;59.306;18.024;2023-03-01T12:37:54;21.40;83.80
14301;DHT22;7234;59.306;18.024;2023-03-01T12:40:43;21.90;83.20
14301;DHT22;7234;59.306;18.024;2023-03-01T12:43:25;22.10;83.40
14301;DHT22;7234;59.306;18.024;2023-03-01T12:46:10;22.40;82.60
14301;DHT22;7234;59.306;18.024;2023-03-01T12:48:46;22.10;81.80
14301;DHT22;7234;59.306;18.024;2023-03-01T12:51:17;21.40;82.40
14301;DHT22;7234;59.306;18.024;2023-03-01T12:53:54;21.50;83.10
14301;DHT22;7234;59.306;18.024;2023-03-01T12:56:24;21.90;82.40
14301;DHT22;7234;59.306;18.024;2023-03-01T12:59:03;22.30;82.70
14301;DHT22;7234;59.306;18.024;2023-03-01T13:01:41;22.80;82.80
14301;DHT22;7234;59.306;18.024;2023-03-01T13:04:21;22.60;81.80
14301;DHT22;7234;59.306;18.024;2023-03-01T13:07:04;23.10;81.60
14301;DHT22;7234;59.306;18.024;2023-03-01T13:09:44;22.80;81.60
14301;DHT22;7234;59.306;18.024;2023-03-01T13:13:00;22.50;81.20
14301;DHT22;7234;59.306;18.024;2023-03-01T13:15:33;22.10;81.00
14301;DHT22;7234;59.306;18.024;2023-03-01T13:21:02;21.80;81.50
14301;DHT22;7234;59.306;18.024;2023-03-01T13:23:35;21.80;82.20
14301;DHT22;7234;59.306;18.024;2023-03-01T13:26:16;22.20;81.90
14301;DHT22;7234;59.306;18.024;2023-03-01T13:28:50;22.20;81.60
14301;DHT22;7234;59.306;18.024;2023-03-01T13:34:49;22.10;81.50
14301;DHT22;7234;59.306;18.024;2023-03-01T13:37:35;21.60;81.60
14301;DHT22;7234;59.306;18.024;2023-03-01T13:40:58;21.80;81.80
14301;DHT22;7234;59.306;18.024;2023-03-01T13:43:34;22.10;81.50
14301;DHT22;7234;59.306;18.024;2023-03-01T13:46:09;22.40;80.90
14301;DHT22;7234;59.306;18.024;2023-03-01T13:48:39;22.20;81.00
14301;DHT22;7234;59.306;18.024;2023-03-01T13:51:09;21.80;81.30
14301;DHT22;7234;59.306;18.024;2023-03-01T13:53:41;21.70;81.60
14301;DHT22;7234;59.306;18.024;2023-03-01T13:56:12;21.60;81.70
14301;DHT22;7234;59.306;18.024;2023-03-01T13:58:50;21.50;81.00
14301;DHT22;7234;59.306;18.024;2023-03-01T14:01:27;21.20;81.30
14301;DHT22;7234;59.306;18.024;2023-03-01T14:03:57;20.90;81.50
14301;DHT22;7234;59.306;18.024;2023-03-01T14:06:26;20.80;81.50
14301;DHT22;7234;59.306;18.024;2023-03-01T14:09:03;20.80;82.40
14301;DHT22;7234;59.306;18.024;2023-03-01T14:12:04;20.60;82.40
14301;DHT22;7234;59.306;18.024;2023-03-01T14:14:51;19.60;83.50
14301;DHT22;7234;59.306;18.024;2023-03-01T14:17:48;20.00;83.50
14301;DHT22;7234;59.306;18.024;2023-03-01T14:20:20;20.10;83.30
14301;DHT22;7234;59.306;18.024;2023-03-01T14:25:25;18.30;83.40
14301;DHT22;7234;59.306;18.024;2023-03-01T14:28:11;17.30;85.10
14301;DHT22;7234;59.306;18.024;2023-03-01T14:30:43;16.30;86.40
14301;DHT22;7234;59.306;18.024;2023-03-01T14:33:22;15.30;88.00
14301;DHT22;7234;59.306;18.024;2023-03-01T14:35:54;14.70;89.20
14301;DHT22;7234;59.306;18.024;2023-03-01T14:38:23;14.20;90.20
14301;DHT22;7234;59.306;18.024;2023-03-01T17:12:48;8.10;99.90
14301;DHT22;7234;59.306;18.024;2023-03-01T17:15:17;8.00;99.90
14301;DHT22;7234;59.306;18.024;2023-03-01T17:17:44;7.90;99.90
14301;DHT22;7234;59.306;18.024;2023-03-01T17:20:16;7.90;99.90
14301;DHT22;7234;59.306;18.024;2023-03-01T17:22:43;7.90;99.90
14301;DHT22;7234;59.306;18.024;2023-03-01T17:25:12;7.90;99.90
14301;DHT22;7234;59.306;18.024;2023-03-01T17:27:39;7.90;99.90
14301;DHT22;7234;59.306;18.024;2023-03-01T17:30:10;7.90;99.90
14301;DHT22;7234;59.306;18.024;2023-03-01T17:32:39;7.70;99.90
14301;DHT22;7234;59.306;18.024;2023-03-01T17:35:07;7.80;99.90
14301;DHT22;7234;59.306;18.024;2023-03-01T17:37:36;7.70;99.90
14301;DHT22;7234;59.306;18.024;2023-03-01T17:40:05;7.70;99.90
14301;DHT22;7234;59.306;18.024;2023-03-01T17:42:32;7.70;99.90
14301;DHT22;7234;59.306;18.024;2023-03-01T17:44:59;7.60;99.90
14301;DHT22;7234;59.306;18.024;2023-03-01T17:47:26;7.70;99.90
14301;DHT22;7234;59.306;18.024;2023-03-01T17:49:56;7.70;99.90
14301;DHT22;7234;59.306;18.024;2023-03-01T17:52:28;7.70;99.90
14301;DHT22;7234;59.306;18.024;2023-03-01T17:55:11;7.70;99.90
14301;DHT22;7234;59.306;18.024;2023-03-01T17:57:38;7.60;99.90
14301;DHT22;7234;59.306;18.024;2023-03-01T18:00:08;7.60;99.90
14301;DHT22;7234;59.306;18.024;2023-03-01T18:02:36;7.50;99.90
14301;DHT22;7234;59.306;18.024;2023-03-01T18:05:10;7.50;99.90
14301;DHT22;7234;59.306;18.024;2023-03-01T18:07:40;7.60;99.90
14301;DHT22;7234;59.306;18.024;2023-03-01T18:10:08;7.50;99.90
14301;DHT22;7234;59.306;18.024;2023-03-01T18:12:35;7.50;99.90
14301;DHT22;7234;59.306;18.024;2023-03-01T18:15:03;7.40;99.90
14301;DHT22;7234;59.306;18.024;2023-03-01T18:17:30;7.40;99.90
14301;DHT22;7234;59.306;18.024;2023-03-01T18:20:01;7.40;99.90
14301;DHT22;7234;59.306;18.024;2023-03-01T18:22:30;7.40;99.90
14301;DHT22;7234;59.306;18.024;2023-03-01T18:25:00;7.40;99.90
14301;DHT22;7234;59.306;18.024;2023-03-01T18:27:28;7.30;99.90
14301;DHT22;7234;59.306;18.024;2023-03-01T18:29:55;7.40;99.90
14301;DHT22;7234;59.306;18.024;2023-03-01T18:32:23;7.40;99.90
14301;DHT22;7234;59.306;18.024;2023-03-01T18:34:51;7.40;99.90
14301;DHT22;7234;59.306;18.024;2023-03-01T18:37:18;7.30;99.90
14301;DHT22;7234;59.306;18.024;2023-03-01T18:39:49;7.30;99.90
14301;DHT22;7234;59.306;18.024;2023-03-01T18:42:16;7.30;99.90
14301;DHT22;7234;59.306;18.024;2023-03-01T18:44:45;7.30;99.90
14301;DHT22;7234;59.306;18.024;2023-03-01T18:47:12;7.30;99.90
14301;DHT22;7234;59.306;18.024;2023-03-01T18:49:39;7.30;99.90
14301;DHT22;7234;59.306;18.024;2023-03-01T18:52:07;7.40;99.90
14301;DHT22;7234;59.306;18.024;2023-03-01T18:54:34;7.40;99.90
14301;DHT22;7234;59.306;18.024;2023-03-01T18:57:02;7.30;99.90
14301;DHT22;7234;59.306;18.024;2023-03-01T18:59:29;7.30;99.90
14301;DHT22;7234;59.306;18.024;2023-03-01T19:01:56;7.30;99.90
14301;DHT22;7234;59.306;18.024;2023-03-01T19:04:25;7.30;99.90
14301;DHT22;7234;59.306;18.024;2023-03-01T19:06:53;7.30;99.90
14301;DHT22;7234;59.306;18.024;2023-03-01T19:09:20;7.30;99.90
14301;DHT22;7234;59.306;18.024;2023-03-01T19:11:47;7.30;99.90
14301;DHT22;7234;59.306;18.024;2023-03-01T19:14:16;7.40;99.90